createdAt,value
2018-12-04T00:02:13.547Z,1.40
2018-12-04T00:04:41.055Z,0.80
2018-12-04T00:07:08.553Z,1.33
2018-12-04T00:09:36.065Z,1.10
2018-12-04T00:12:03.579Z,1.20
2018-12-04T00:14:31.037Z,1.13
2018-12-04T00:16:58.555Z,1.10
2018-12-04T00:19:26.013Z,1.20
2018-12-04T00:21:53.558Z,0.90
2018-12-04T00:24:21.027Z,1.03
2018-12-04T00:26:48.506Z,1.00
2018-12-04T00:29:15.954Z,1.00
2018-12-04T00:31:43.446Z,0.90
2018-12-04T00:34:10.911Z,0.93
2018-12-04T00:36:38.382Z,0.97
2018-12-04T00:39:06.191Z,1.33
2018-12-04T00:41:33.670Z,1.00
2018-12-04T00:44:01.127Z,0.90
2018-12-04T00:46:28.606Z,1.07
2018-12-04T00:48:56.073Z,1.17
2018-12-04T00:51:23.554Z,1.30
2018-12-04T00:53:51.015Z,1.43
2018-12-04T00:56:18.502Z,1.13
2018-12-04T00:58:45.957Z,1.30
2018-12-04T01:01:13.416Z,0.97
2018-12-04T01:03:40.900Z,1.20
2018-12-04T01:06:08.397Z,1.30
2018-12-04T01:08:35.865Z,0.93
2018-12-04T01:11:03.339Z,1.20
2018-12-04T01:13:30.852Z,0.80
2018-12-04T01:15:58.438Z,1.13
2018-12-04T01:18:25.925Z,0.90
2018-12-04T01:20:53.441Z,1.30
2018-12-04T01:23:21.014Z,1.00
2018-12-04T01:25:48.508Z,0.70
2018-12-04T01:28:15.978Z,1.37
2018-12-04T01:30:43.441Z,0.90
2018-12-04T01:33:10.946Z,1.30
2018-12-04T01:35:38.422Z,0.90
2018-12-04T01:38:05.906Z,1.10
2018-12-04T01:40:33.394Z,1.10
2018-12-04T01:43:00.875Z,1.23
2018-12-04T01:45:28.341Z,1.00
2018-12-04T01:47:55.809Z,1.20
2018-12-04T01:50:23.278Z,1.10
2018-12-04T01:52:50.955Z,1.20
2018-12-04T01:55:18.425Z,0.90
2018-12-04T01:57:45.892Z,1.23
2018-12-04T02:00:13.392Z,1.20
2018-12-04T02:02:40.847Z,1.27
2018-12-04T02:05:08.342Z,1.10
2018-12-04T02:07:35.808Z,1.17
2018-12-04T02:10:04.325Z,1.50
2018-12-04T02:12:31.829Z,1.17
2018-12-04T02:14:59.303Z,1.40
2018-12-04T02:17:26.774Z,0.93
2018-12-04T02:19:54.250Z,1.10
2018-12-04T02:22:21.710Z,1.27
2018-12-04T02:24:49.189Z,1.00
2018-12-04T02:27:16.650Z,1.10
2018-12-04T02:29:44.130Z,1.20
2018-12-04T02:32:11.609Z,1.10
2018-12-04T02:34:39.097Z,1.10
2018-12-04T02:37:06.557Z,0.90
2018-12-04T02:39:34.046Z,1.20
2018-12-04T02:42:01.506Z,1.40
2018-12-04T02:44:28.986Z,1.10
2018-12-04T02:46:56.443Z,1.77
2018-12-04T02:49:23.903Z,1.13
2018-12-04T02:51:51.473Z,1.20
2018-12-04T02:54:18.947Z,1.10
2018-12-04T02:56:46.425Z,1.07
2018-12-04T02:59:13.874Z,1.00
2018-12-04T03:01:41.340Z,1.37
2018-12-04T03:04:08.828Z,1.17
2018-12-04T03:06:36.336Z,1.00
2018-12-04T03:09:05.871Z,1.40
2018-12-04T03:11:33.345Z,1.20
2018-12-04T03:14:00.801Z,1.17
2018-12-04T03:16:28.271Z,1.20
2018-12-04T03:18:55.735Z,1.67
2018-12-04T03:21:23.217Z,1.27
2018-12-04T03:23:50.673Z,1.43
2018-12-04T03:26:18.142Z,1.30
2018-12-04T03:28:45.594Z,1.60
2018-12-04T03:31:13.073Z,1.30
2018-12-04T03:33:40.540Z,1.50
2018-12-04T03:36:08.031Z,1.20
2018-12-04T03:38:35.496Z,1.40
2018-12-04T03:41:03.030Z,1.30
2018-12-04T03:43:30.505Z,1.10
2018-12-04T03:45:57.954Z,1.50
2018-12-04T03:48:25.454Z,1.20
2018-12-04T03:50:52.906Z,1.10
2018-12-04T03:53:20.375Z,1.20
2018-12-04T03:55:47.833Z,1.20
2018-12-04T03:58:15.311Z,1.30
2018-12-04T04:00:42.794Z,1.23
2018-12-04T04:03:10.386Z,1.00
2018-12-04T04:05:37.864Z,1.30
2018-12-04T04:08:05.391Z,1.20
2018-12-04T04:10:32.866Z,1.07
2018-12-04T04:13:00.351Z,1.03
2018-12-04T04:15:27.798Z,1.50
2018-12-04T04:17:55.310Z,1.10
2018-12-04T04:20:22.761Z,1.30
2018-12-04T04:22:50.249Z,1.30
2018-12-04T04:25:17.704Z,1.20
2018-12-04T04:27:45.181Z,1.30
2018-12-04T04:30:12.635Z,1.40
2018-12-04T04:32:40.122Z,1.20
2018-12-04T04:35:07.580Z,1.10
2018-12-04T04:37:35.049Z,0.97
2018-12-04T04:40:02.517Z,1.10
2018-12-04T04:42:29.993Z,1.27
2018-12-04T04:44:57.451Z,1.20
2018-12-04T04:47:24.908Z,1.20
2018-12-04T04:49:52.391Z,1.07
2018-12-04T04:52:19.850Z,1.30
2018-12-04T04:54:47.347Z,1.23
2018-12-04T04:57:14.860Z,1.00
2018-12-04T04:59:42.363Z,1.10
2018-12-04T05:02:09.808Z,1.80
2018-12-04T05:04:37.299Z,4.83
2018-12-04T05:07:04.751Z,1.60
2018-12-04T05:09:32.225Z,1.30
2018-12-04T05:11:59.698Z,1.20
2018-12-04T05:14:27.157Z,1.20
2018-12-04T05:16:54.618Z,1.10
2018-12-04T05:19:22.087Z,1.10
2018-12-04T05:21:49.544Z,1.07
2018-12-04T05:24:17.035Z,1.10
2018-12-04T05:26:44.499Z,1.40
2018-12-04T05:29:11.980Z,1.40
2018-12-04T05:31:39.431Z,1.40
2018-12-04T05:34:06.895Z,1.20
2018-12-04T05:36:34.347Z,1.27
2018-12-04T05:39:01.825Z,1.40
2018-12-04T05:41:29.300Z,1.70
2018-12-04T05:43:56.770Z,1.70
2018-12-04T05:46:24.222Z,1.50
2018-12-04T05:48:51.696Z,1.73
2018-12-04T05:51:19.169Z,1.63
2018-12-04T05:53:46.675Z,1.70
2018-12-04T05:56:14.142Z,1.70
2018-12-04T05:58:41.598Z,2.00
2018-12-04T06:01:09.067Z,1.80
2018-12-04T06:03:36.527Z,1.83
2018-12-04T06:06:04.002Z,1.73
2018-12-04T06:08:31.461Z,2.00
2018-12-04T06:10:59.424Z,1.63
2018-12-04T06:13:26.890Z,1.80
2018-12-04T06:15:54.361Z,1.80
2018-12-04T06:18:21.834Z,2.07
2018-12-04T06:20:49.313Z,2.23
2018-12-04T06:23:16.767Z,1.90
2018-12-04T06:25:44.241Z,1.70
2018-12-04T06:28:11.700Z,2.20
2018-12-04T06:30:39.237Z,2.33
2018-12-04T06:33:06.673Z,1.97
2018-12-04T06:35:34.139Z,1.90
2018-12-04T06:38:01.593Z,1.93
2018-12-04T06:40:29.067Z,1.90
2018-12-04T06:42:56.535Z,1.97
2018-12-04T06:45:23.990Z,1.80
2018-12-04T06:47:51.473Z,1.90
2018-12-04T06:50:18.934Z,2.00
2018-12-04T06:52:46.417Z,1.70
2018-12-04T06:55:13.865Z,1.83
2018-12-04T06:57:41.331Z,2.00
2018-12-04T07:00:08.802Z,1.90
2018-12-04T07:02:36.362Z,2.10
2018-12-04T07:05:04.036Z,2.07
2018-12-04T07:07:31.524Z,2.13
2018-12-04T07:09:58.981Z,1.97
2018-12-04T07:12:26.486Z,2.23
2018-12-04T07:14:53.947Z,2.20
2018-12-04T07:17:21.419Z,2.00
2018-12-04T07:19:48.861Z,2.20
2018-12-04T07:22:16.470Z,2.27
2018-12-04T07:24:43.927Z,2.63
2018-12-04T07:27:11.434Z,2.50
2018-12-04T07:29:38.895Z,2.53
2018-12-04T07:32:06.621Z,2.30
2018-12-04T07:34:34.106Z,2.40
2018-12-04T07:43:55.556Z,2.23
2018-12-04T07:46:23.026Z,2.10
2018-12-04T07:48:50.486Z,2.20
2018-12-04T07:51:17.942Z,2.27
2018-12-04T07:53:45.416Z,2.60
2018-12-04T07:56:12.872Z,2.40
2018-12-04T07:58:40.342Z,2.10
2018-12-04T08:01:07.811Z,2.37
2018-12-04T08:03:35.313Z,2.73
2018-12-04T08:06:04.702Z,2.37
2018-12-04T08:08:32.202Z,2.20
2018-12-04T08:10:59.654Z,2.30
2018-12-04T08:13:27.123Z,2.47
2018-12-04T08:15:54.572Z,2.10
2018-12-04T08:18:22.058Z,2.03
2018-12-04T08:20:49.530Z,2.00
2018-12-04T08:23:16.986Z,1.60
2018-12-04T08:25:44.455Z,1.70
2018-12-04T08:28:11.926Z,2.30
2018-12-04T08:30:39.413Z,1.83
2018-12-04T08:33:07.587Z,2.10
2018-12-04T08:35:35.057Z,2.00
2018-12-04T08:38:02.526Z,2.40
2018-12-04T08:40:30.026Z,2.50
2018-12-04T08:42:57.595Z,2.77
2018-12-04T08:45:25.065Z,2.40
2018-12-04T08:47:52.524Z,1.90
2018-12-04T08:50:20.019Z,1.90
2018-12-04T08:52:47.499Z,2.00
2018-12-04T08:55:14.961Z,2.30
2018-12-04T08:57:42.430Z,2.00
2018-12-04T09:00:09.945Z,1.93
2018-12-04T09:02:37.426Z,2.10
2018-12-04T09:05:06.405Z,2.00
2018-12-04T09:07:33.986Z,1.60
2018-12-04T09:10:02.618Z,1.80
2018-12-04T09:12:30.069Z,1.90
2018-12-04T09:14:57.557Z,1.77
2018-12-04T09:17:25.009Z,1.67
2018-12-04T09:19:52.525Z,1.60
2018-12-04T09:22:20.119Z,1.60
2018-12-04T09:24:47.679Z,1.57
2018-12-04T09:27:15.139Z,1.70
2018-12-04T09:29:42.749Z,1.70
2018-12-04T09:32:10.530Z,1.47
2018-12-04T09:34:38.013Z,1.50
2018-12-04T09:37:05.466Z,1.90
2018-12-04T09:39:32.925Z,1.87
2018-12-04T09:42:00.415Z,1.50
2018-12-04T09:44:27.855Z,1.70
2018-12-04T09:46:55.334Z,1.50
2018-12-04T09:49:22.802Z,1.73
2018-12-04T09:51:50.269Z,1.90
2018-12-04T09:54:17.749Z,2.73
2018-12-04T09:56:45.218Z,1.80
2018-12-04T09:59:12.694Z,1.90
2018-12-04T10:01:40.387Z,1.90
2018-12-04T10:04:07.848Z,2.00
2018-12-04T10:06:35.349Z,2.47
2018-12-04T10:09:03.211Z,3.87
2018-12-04T10:11:30.700Z,3.10
2018-12-04T10:13:58.220Z,2.60
2018-12-04T10:16:25.704Z,2.83
2018-12-04T10:18:53.163Z,2.53
2018-12-04T10:21:20.640Z,2.57
2018-12-04T10:23:48.101Z,2.43
2018-12-04T10:26:15.600Z,3.00
2018-12-04T10:28:43.057Z,2.20
2018-12-04T10:31:10.549Z,2.17
2018-12-04T10:33:38.002Z,2.57
2018-12-04T10:36:05.484Z,2.30
2018-12-04T10:38:32.947Z,2.50
2018-12-04T10:41:00.397Z,2.40
2018-12-04T10:43:27.872Z,2.60
2018-12-04T10:45:55.355Z,2.73
2018-12-04T10:48:22.835Z,2.60
2018-12-04T10:50:50.284Z,2.63
2018-12-04T10:53:17.774Z,3.40
2018-12-04T10:55:45.230Z,3.00
2018-12-04T10:58:12.726Z,2.70
2018-12-04T11:00:45.881Z,2.27
2018-12-04T11:03:13.391Z,1.90
2018-12-04T11:05:41.013Z,2.17
2018-12-04T11:08:08.499Z,2.10
2018-12-04T11:10:35.964Z,1.80
2018-12-04T11:13:03.478Z,1.73
2018-12-04T11:15:30.931Z,1.80
2018-12-04T11:17:58.419Z,1.87
2018-12-04T11:20:25.871Z,1.93
2018-12-04T11:22:53.375Z,2.03
2018-12-04T11:25:20.843Z,1.70
2018-12-04T11:27:48.306Z,2.13
2018-12-04T11:30:15.788Z,1.80
2018-12-04T11:32:44.030Z,1.97
2018-12-04T11:35:11.477Z,1.80
2018-12-04T11:37:38.973Z,2.10
2018-12-04T11:40:06.459Z,2.20
2018-12-04T11:42:33.929Z,2.20
2018-12-04T11:45:01.427Z,1.70
2018-12-04T11:47:28.894Z,2.30
2018-12-04T11:49:56.463Z,2.20
2018-12-04T11:52:23.923Z,2.80
2018-12-04T11:54:51.438Z,2.23
2018-12-04T11:57:18.914Z,2.53
2018-12-04T11:59:46.391Z,2.20
2018-12-04T12:02:14.038Z,2.40
2018-12-04T12:04:41.508Z,2.27
2018-12-04T12:07:08.961Z,2.57
2018-12-04T12:09:36.449Z,2.10
2018-12-04T12:12:03.906Z,2.00
2018-12-04T12:14:31.378Z,1.90
2018-12-04T12:16:58.835Z,2.57
2018-12-04T12:19:26.327Z,2.50
2018-12-04T12:21:53.785Z,2.20
2018-12-04T12:24:21.260Z,1.80
2018-12-04T12:26:48.716Z,2.17
2018-12-04T12:29:16.192Z,2.77
2018-12-04T12:31:43.645Z,2.00
2018-12-04T12:34:11.113Z,3.33
2018-12-04T12:36:38.563Z,2.43
2018-12-04T12:39:07.375Z,2.40
2018-12-04T12:41:34.838Z,3.23
2018-12-04T12:44:02.287Z,2.83
2018-12-04T12:46:29.751Z,2.63
2018-12-04T12:48:57.224Z,2.57
2018-12-04T12:51:24.690Z,2.67
2018-12-04T12:53:52.143Z,3.10
2018-12-04T12:56:19.620Z,2.57
2018-12-04T12:58:47.068Z,2.67
2018-12-04T13:01:14.557Z,2.73
2018-12-04T13:03:41.997Z,2.67
2018-12-04T13:06:09.474Z,2.80
2018-12-04T13:08:36.934Z,2.53
2018-12-04T13:11:04.409Z,2.43
2018-12-04T13:13:36.765Z,2.40
2018-12-04T13:16:01.362Z,2.53
2018-12-04T13:18:28.816Z,2.20
2018-12-04T13:20:56.283Z,2.13
2018-12-04T13:23:23.769Z,2.57
2018-12-04T13:25:51.314Z,2.10
2018-12-04T13:28:18.834Z,2.00
2018-12-04T13:30:46.317Z,2.07
2018-12-04T13:33:13.870Z,2.30
2018-12-04T13:35:41.515Z,2.17
2018-12-04T13:38:08.999Z,2.23
2018-12-04T13:40:36.548Z,2.10
2018-12-04T13:43:04.029Z,2.23
2018-12-04T13:45:31.498Z,2.30
2018-12-04T13:48:00.799Z,2.30
2018-12-04T13:50:28.597Z,2.17
2018-12-04T13:52:56.170Z,2.70
2018-12-04T13:55:23.729Z,2.50
2018-12-04T13:57:51.262Z,2.70
2018-12-04T14:00:18.851Z,2.50
2018-12-04T14:02:46.364Z,2.90
2018-12-04T14:05:13.822Z,4.43
2018-12-04T14:07:41.320Z,3.10
2018-12-04T14:10:08.784Z,2.47
2018-12-04T14:12:36.367Z,2.90
2018-12-04T14:15:03.999Z,2.53
2018-12-04T14:17:31.513Z,2.27
2018-12-04T14:19:59.137Z,2.87
2018-12-04T14:22:26.706Z,2.20
2018-12-04T14:24:54.200Z,2.50
2018-12-04T14:27:21.674Z,2.90
2018-12-04T14:29:49.251Z,2.87
2018-12-04T14:32:16.738Z,2.80
2018-12-04T14:34:44.294Z,2.87
2018-12-04T14:37:11.836Z,2.50
2018-12-04T14:39:39.361Z,2.50
2018-12-04T14:42:06.989Z,3.00
2018-12-04T14:44:34.549Z,3.33
2018-12-04T14:47:02.166Z,2.83
2018-12-04T14:49:29.731Z,3.03
2018-12-04T14:51:57.194Z,3.10
2018-12-04T14:54:24.765Z,3.20
2018-12-04T14:56:52.322Z,3.23
2018-12-04T14:59:19.962Z,3.23
2018-12-04T15:01:47.406Z,2.90
2018-12-04T15:04:14.890Z,3.57
2018-12-04T15:06:42.466Z,3.30
2018-12-04T15:09:10.045Z,3.27
2018-12-04T15:11:37.488Z,3.77
2018-12-04T15:14:05.010Z,3.27
2018-12-04T15:16:32.555Z,3.23
2018-12-04T15:19:00.051Z,2.87
2018-12-04T15:21:27.621Z,2.93
2018-12-04T15:23:55.104Z,2.90
2018-12-04T15:26:22.625Z,2.80
2018-12-04T15:28:50.198Z,3.80
2018-12-04T15:31:17.724Z,3.10
2018-12-04T15:33:45.307Z,3.13
2018-12-04T15:36:12.846Z,3.23
2018-12-04T15:38:40.327Z,2.90
2018-12-04T15:41:07.791Z,3.10
2018-12-04T15:43:35.324Z,3.43
2018-12-04T15:46:02.821Z,3.80
2018-12-04T15:48:30.269Z,4.00
2018-12-04T15:51:00.046Z,4.10
2018-12-04T15:53:27.587Z,4.83
2018-12-04T15:55:55.156Z,4.80
2018-12-04T15:58:22.619Z,6.60
2018-12-04T16:00:50.090Z,5.30
2018-12-04T16:03:17.552Z,5.30
2018-12-04T16:05:45.021Z,4.93
2018-12-04T16:08:12.501Z,5.23
2018-12-04T16:10:40.010Z,8.47
2018-12-04T16:13:07.476Z,5.93
2018-12-04T16:15:34.959Z,5.00
2018-12-04T16:18:02.425Z,4.53
2018-12-04T16:20:29.885Z,3.80
2018-12-04T16:22:57.387Z,4.93
2018-12-04T16:25:24.879Z,3.83
2018-12-04T16:27:52.344Z,4.37
2018-12-04T16:30:19.974Z,4.53
2018-12-04T16:32:47.435Z,4.43
2018-12-04T16:35:14.972Z,4.73
2018-12-04T16:37:42.454Z,5.13
2018-12-04T16:40:10.075Z,5.23
2018-12-04T16:42:37.566Z,5.50
2018-12-04T16:45:07.021Z,6.90
2018-12-04T16:47:34.478Z,5.80
2018-12-04T16:50:01.946Z,5.60
2018-12-04T16:52:29.430Z,5.50
2018-12-04T16:54:56.992Z,5.57
2018-12-04T16:57:24.451Z,5.07
2018-12-04T16:59:51.921Z,5.87
2018-12-04T17:02:19.418Z,6.40
2018-12-04T17:04:47.000Z,6.20
2018-12-04T17:07:14.482Z,5.93
2018-12-04T17:09:41.942Z,6.47
2018-12-04T17:12:09.435Z,7.10
2018-12-04T17:14:36.921Z,6.57
2018-12-04T17:17:04.811Z,7.20
2018-12-04T17:19:32.553Z,9.23
2018-12-04T17:22:00.063Z,10.90
2018-12-04T17:24:27.555Z,10.33
2018-12-04T17:26:55.035Z,10.53
2018-12-04T17:29:22.496Z,10.97
2018-12-04T17:31:50.007Z,10.27
2018-12-04T17:34:17.469Z,10.13
2018-12-04T17:36:44.956Z,11.53
2018-12-04T17:39:12.419Z,13.17
2018-12-04T17:41:39.916Z,12.60
2018-12-04T17:44:07.372Z,10.50
2018-12-04T17:46:34.864Z,10.63
2018-12-04T17:49:02.577Z,9.07
2018-12-04T17:51:30.152Z,8.37
2018-12-04T17:53:57.669Z,8.23
2018-12-04T17:56:25.127Z,9.37
2018-12-04T17:58:52.630Z,9.50
2018-12-04T18:01:20.104Z,8.60
2018-12-04T18:03:47.596Z,8.67
2018-12-04T18:06:15.077Z,8.37
2018-12-04T18:08:42.556Z,8.60
2018-12-04T18:11:10.106Z,8.60
2018-12-04T18:13:37.603Z,8.30
2018-12-04T18:16:05.076Z,10.20
2018-12-04T18:18:32.563Z,12.10
2018-12-04T18:21:00.059Z,12.67
2018-12-04T18:23:27.540Z,11.17
2018-12-04T18:25:55.015Z,10.33
2018-12-04T18:28:22.532Z,7.20
2018-12-04T18:30:50.017Z,6.63
2018-12-04T18:33:17.513Z,7.00
2018-12-04T18:35:44.978Z,6.70
2018-12-04T18:38:12.490Z,6.57
2018-12-04T18:40:39.968Z,7.20
2018-12-04T18:43:07.480Z,6.63
2018-12-04T18:45:34.976Z,8.20
2018-12-04T18:48:02.513Z,8.30
2018-12-04T18:50:30.013Z,6.30
2018-12-04T18:52:57.501Z,6.93
2018-12-04T18:55:24.995Z,7.20
2018-12-04T18:57:52.566Z,7.00
2018-12-04T19:00:20.051Z,6.40
2018-12-04T19:02:47.557Z,7.23
2018-12-04T19:05:15.106Z,6.63
2018-12-04T19:07:42.636Z,6.47
2018-12-04T19:10:10.123Z,6.83
2018-12-04T19:12:37.635Z,7.33
2018-12-04T19:15:05.605Z,7.30
2018-12-04T19:17:33.068Z,7.43
2018-12-04T19:20:00.565Z,7.37
2018-12-04T19:22:28.057Z,7.90
2018-12-04T19:24:55.552Z,8.10
2018-12-04T19:27:23.016Z,7.60
2018-12-04T19:29:50.509Z,9.43
2018-12-04T19:32:17.970Z,7.97
2018-12-04T19:34:45.472Z,7.37
2018-12-04T19:37:12.975Z,6.93
2018-12-04T19:39:40.459Z,9.63
2018-12-04T19:42:07.942Z,8.37
2018-12-04T19:44:35.452Z,8.20
2018-12-04T19:47:02.979Z,7.53
2018-12-04T19:49:30.482Z,8.03
2018-12-04T19:51:57.950Z,6.83
2018-12-04T19:54:25.444Z,6.63
2018-12-04T19:56:52.922Z,6.20
2018-12-04T19:59:20.389Z,5.63
2018-12-04T20:01:47.879Z,6.50
2018-12-04T20:04:15.356Z,5.93
2018-12-04T20:06:42.839Z,6.07
2018-12-04T20:09:10.330Z,6.40
2018-12-04T20:11:37.805Z,7.23
2018-12-04T20:14:05.271Z,7.50
2018-12-04T20:16:32.880Z,7.00
2018-12-04T20:19:00.478Z,7.20
2018-12-04T20:21:27.980Z,6.50
2018-12-04T20:23:55.832Z,6.50
2018-12-04T20:26:23.437Z,6.50
2018-12-04T20:28:50.944Z,6.27
2018-12-04T20:31:18.432Z,6.60
2018-12-04T20:33:46.001Z,6.80
2018-12-04T20:36:13.539Z,5.83
2018-12-04T20:38:41.069Z,6.30
2018-12-04T20:41:08.540Z,6.50
2018-12-04T20:43:36.399Z,6.90
2018-12-04T20:46:06.069Z,6.97
2018-12-04T20:48:33.489Z,7.00
2018-12-04T20:51:00.992Z,7.27
2018-12-04T20:53:28.458Z,8.07
2018-12-04T20:55:55.980Z,9.00
2018-12-04T20:58:23.645Z,7.57
2018-12-04T21:00:51.227Z,7.43
2018-12-04T21:03:18.783Z,6.93
2018-12-04T21:05:46.237Z,6.73
2018-12-04T21:08:13.859Z,6.63
2018-12-04T21:10:41.413Z,7.63
2018-12-04T21:13:14.483Z,6.90
2018-12-04T21:15:38.379Z,7.17
2018-12-04T21:18:05.869Z,6.73
2018-12-04T21:20:33.319Z,6.30
2018-12-04T21:23:00.907Z,5.83
2018-12-04T21:25:28.414Z,6.37
2018-12-04T21:28:01.632Z,7.00
2018-12-04T21:30:34.755Z,6.73
2018-12-04T21:36:13.466Z,7.57
2018-12-04T21:38:46.642Z,7.30
2018-12-04T21:41:16.069Z,7.83
2018-12-04T21:43:49.225Z,6.93
2018-12-04T21:46:22.423Z,7.27
2018-12-04T21:48:50.034Z,7.43
2018-12-04T21:51:17.499Z,6.97
2018-12-04T21:53:44.963Z,7.07
2018-12-04T21:56:12.450Z,7.00
2018-12-04T21:58:39.942Z,7.20
2018-12-04T22:01:07.403Z,7.63
2018-12-04T22:03:34.894Z,7.33
2018-12-04T22:06:02.355Z,10.10
2018-12-04T22:08:30.019Z,8.40
2018-12-04T22:10:57.478Z,8.20
2018-12-04T22:13:25.062Z,8.87
2018-12-04T22:15:52.543Z,8.50
2018-12-04T22:18:20.029Z,7.83
2018-12-04T22:20:47.484Z,8.03
2018-12-04T22:23:14.968Z,7.27
2018-12-04T22:25:42.441Z,7.87
2018-12-04T22:28:09.912Z,7.57
2018-12-04T22:30:37.436Z,7.07
2018-12-04T22:33:04.883Z,6.90
2018-12-04T22:35:32.358Z,6.90
2018-12-04T22:37:59.833Z,7.23
2018-12-04T22:40:27.315Z,7.57
2018-12-04T22:42:54.786Z,7.43
2018-12-04T22:45:25.439Z,6.10
2018-12-04T22:47:52.982Z,5.70
2018-12-04T22:50:20.459Z,6.40
2018-12-04T22:52:47.997Z,6.23
2018-12-04T22:55:15.487Z,6.20
2018-12-04T22:57:42.970Z,6.27
2018-12-04T23:00:16.224Z,6.93
2018-12-04T23:02:43.678Z,7.07
2018-12-04T23:05:11.199Z,6.73
2018-12-04T23:07:38.658Z,6.77
2018-12-04T23:10:07.378Z,6.67
2018-12-04T23:12:34.856Z,6.53
2018-12-04T23:15:02.461Z,6.80
2018-12-04T23:17:29.930Z,6.73
2018-12-04T23:19:57.419Z,6.63
2018-12-04T23:22:24.987Z,6.30
2018-12-04T23:24:52.465Z,6.50
2018-12-04T23:27:19.956Z,6.30
2018-12-04T23:29:47.446Z,5.77
2018-12-04T23:32:14.899Z,6.00
2018-12-04T23:34:42.587Z,5.93
2018-12-04T23:37:10.058Z,6.90
2018-12-04T23:39:37.530Z,7.03
2018-12-04T23:42:04.996Z,6.50
2018-12-04T23:44:32.459Z,7.10
2018-12-04T23:46:59.926Z,6.80
2018-12-04T23:49:27.419Z,7.10
2018-12-04T23:51:54.896Z,7.17
2018-12-04T23:54:22.352Z,8.00
2018-12-04T23:56:49.831Z,7.80
2018-12-04T23:59:17.290Z,8.60
